createdAt,value
2023-03-21T00:01:53.693Z,62.87
2023-03-21T00:04:25.114Z,62.97
2023-03-21T00:06:54.085Z,63.11
2023-03-21T00:09:22.319Z,63.20
2023-03-21T00:11:50.467Z,63.15
2023-03-21T00:14:20.120Z,63.36
2023-03-21T00:16:53.646Z,63.35
2023-03-21T00:19:24.976Z,63.41
2023-03-21T00:22:06.913Z,63.59
2023-03-21T00:24:37.009Z,63.54
2023-03-21T00:27:30.316Z,63.75
2023-03-21T00:29:56.606Z,63.67
2023-03-21T00:32:25.462Z,63.71
2023-03-21T00:35:04.929Z,63.66
2023-03-21T00:37:42.113Z,63.43
2023-03-21T00:40:27.890Z,63.47
2023-03-21T00:43:01.137Z,63.31
2023-03-21T00:45:29.262Z,63.37
2023-03-21T00:47:58.070Z,63.29
2023-03-21T00:50:26.306Z,63.19
2023-03-21T00:52:56.222Z,63.46
2023-03-21T00:55:26.744Z,63.40
2023-03-21T00:58:01.534Z,63.71
2023-03-21T01:00:31.312Z,64.00
2023-03-21T01:03:17.634Z,64.15
2023-03-21T01:06:05.808Z,64.08
2023-03-21T01:08:51.143Z,64.34
2023-03-21T01:11:28.535Z,64.43
2023-03-21T01:14:10.846Z,64.42
2023-03-21T01:16:43.949Z,64.55
2023-03-21T01:19:25.485Z,64.71
2023-03-21T01:21:56.125Z,64.79
2023-03-21T01:24:25.592Z,64.82
2023-03-21T01:26:54.231Z,64.92
2023-03-21T01:29:22.532Z,64.96
2023-03-21T01:31:50.806Z,65.14
2023-03-21T01:34:19.044Z,65.31
2023-03-21T01:36:47.865Z,65.39
2023-03-21T01:39:20.401Z,65.21
2023-03-21T01:41:50.613Z,65.33
2023-03-21T01:44:57.616Z,65.11
2023-03-21T01:47:29.723Z,65.03
2023-03-21T01:50:22.298Z,65.05
2023-03-21T01:53:09.865Z,65.11
2023-03-21T01:55:39.791Z,65.13
2023-03-21T01:58:20.610Z,65.14
2023-03-21T02:01:25.447Z,64.92
2023-03-21T02:03:54.714Z,65.23
2023-03-21T02:06:57.606Z,65.08
2023-03-21T02:09:44.540Z,65.20
2023-03-21T02:12:18.746Z,65.20
2023-03-21T02:14:50.173Z,65.24
2023-03-21T02:17:58.800Z,65.38
2023-03-21T02:20:39.940Z,65.36
2023-03-21T02:23:29.413Z,65.10
2023-03-21T02:26:24.776Z,65.17
2023-03-21T02:29:18.820Z,65.36
2023-03-21T02:32:28.326Z,65.31
2023-03-21T02:35:41.548Z,65.30
2023-03-21T02:38:25.970Z,65.49
2023-03-21T02:41:19.484Z,65.49
2023-03-21T02:44:24.511Z,65.69
2023-03-21T02:47:06.865Z,65.50
2023-03-21T02:49:58.192Z,65.44
2023-03-21T02:52:39.174Z,65.35
2023-03-21T02:55:20.223Z,65.32
2023-03-21T02:58:01.487Z,65.36
2023-03-21T03:00:36.025Z,65.46
2023-03-21T03:03:09.891Z,65.35
2023-03-21T03:05:49.650Z,65.51
2023-03-21T03:08:49.919Z,65.81
2023-03-21T03:11:38.114Z,65.88
2023-03-21T03:14:52.726Z,65.96
2023-03-21T03:17:43.874Z,65.76
2023-03-21T03:20:21.042Z,65.90
2023-03-21T03:23:28.236Z,65.94
2023-03-21T03:26:04.596Z,65.68
2023-03-21T03:28:39.815Z,65.93
2023-03-21T03:31:15.587Z,65.82
2023-03-21T03:33:53.496Z,65.84
2023-03-21T03:36:32.105Z,65.92
2023-03-21T03:39:10.384Z,65.80
2023-03-21T03:42:10.098Z,65.78
2023-03-21T03:44:42.763Z,65.80
2023-03-21T03:47:31.726Z,65.77
2023-03-21T03:50:31.103Z,65.69
2023-03-21T03:53:23.662Z,65.73
2023-03-21T03:55:56.410Z,65.75
2023-03-21T03:58:39.502Z,65.67
2023-03-21T04:01:11.723Z,65.58
2023-03-21T04:03:49.730Z,65.64
2023-03-21T04:06:20.177Z,65.55
2023-03-21T04:08:49.181Z,65.42
2023-03-21T04:11:17.361Z,65.49
2023-03-21T04:13:49.257Z,65.32
2023-03-21T04:16:23.521Z,65.31
2023-03-21T04:18:52.802Z,65.33
2023-03-21T04:21:21.955Z,65.30
2023-03-21T04:23:50.579Z,65.48
2023-03-21T04:26:24.521Z,65.18
2023-03-21T04:29:15.651Z,65.26
2023-03-21T04:32:27.144Z,65.07
2023-03-21T04:35:02.684Z,65.10
2023-03-21T04:37:33.998Z,65.06
2023-03-21T04:40:06.836Z,65.19
2023-03-21T04:42:35.334Z,65.13
2023-03-21T04:45:04.972Z,65.08
2023-03-21T04:47:33.779Z,65.00
2023-03-21T04:50:02.087Z,65.05
2023-03-21T04:52:30.213Z,65.12
2023-03-21T04:54:58.385Z,65.24
2023-03-21T04:57:27.044Z,65.20
2023-03-21T04:59:55.557Z,65.36
2023-03-21T05:02:23.806Z,65.43
2023-03-21T05:04:52.053Z,65.40
2023-03-21T05:07:20.268Z,65.49
2023-03-21T05:09:48.390Z,65.55
2023-03-21T05:12:19.532Z,65.54
2023-03-21T05:14:47.716Z,65.52
2023-03-21T05:17:23.181Z,65.40
2023-03-21T05:19:52.981Z,65.47
2023-03-21T05:22:21.137Z,65.39
2023-03-21T05:24:50.247Z,65.36
2023-03-21T05:27:34.605Z,65.41
2023-03-21T05:30:09.813Z,65.62
2023-03-21T05:32:38.514Z,65.63
2023-03-21T05:35:10.812Z,65.60
2023-03-21T05:37:39.016Z,65.75
2023-03-21T05:40:09.615Z,65.70
2023-03-21T05:42:39.379Z,65.83
2023-03-21T05:45:16.214Z,65.85
2023-03-21T05:47:44.448Z,65.79
2023-03-21T05:50:13.474Z,65.61
2023-03-21T05:52:43.440Z,65.78
2023-03-21T05:55:13.666Z,65.64
2023-03-21T05:57:41.870Z,65.64
2023-03-21T06:00:17.188Z,65.67
2023-03-21T06:02:45.827Z,65.77
2023-03-21T06:05:58.004Z,65.84
2023-03-21T06:08:30.379Z,65.66
2023-03-21T06:10:58.569Z,65.36
2023-03-21T06:13:26.744Z,65.40
2023-03-21T06:15:54.968Z,65.44
2023-03-21T06:18:25.697Z,65.29
2023-03-21T06:21:02.365Z,65.23
2023-03-21T06:23:30.555Z,65.12
2023-03-21T06:25:59.217Z,65.19
2023-03-21T06:28:27.647Z,65.06
2023-03-21T06:30:56.020Z,64.92
2023-03-21T06:33:26.671Z,64.87
2023-03-21T06:35:57.642Z,64.77
2023-03-21T06:38:26.282Z,64.71
2023-03-21T06:40:54.857Z,64.59
2023-03-21T06:43:25.288Z,64.67
2023-03-21T06:45:53.869Z,64.54
2023-03-21T06:48:22.465Z,64.31
2023-03-21T06:50:53.122Z,64.26
2023-03-21T06:53:27.195Z,64.26
2023-03-21T06:56:15.449Z,64.21
2023-03-21T06:58:43.870Z,64.15
2023-03-21T07:01:18.648Z,63.94
2023-03-21T07:03:57.595Z,63.91
2023-03-21T07:06:26.952Z,63.85
2023-03-21T07:08:56.649Z,63.95
2023-03-21T07:11:25.853Z,63.82
2023-03-21T07:13:54.612Z,63.61
2023-03-21T07:16:25.178Z,63.42
2023-03-21T07:18:53.623Z,63.48
2023-03-21T07:21:22.049Z,63.37
2023-03-21T07:23:50.877Z,63.35
2023-03-21T07:26:19.322Z,63.21
2023-03-21T07:28:48.002Z,62.87
2023-03-21T07:31:17.668Z,62.88
2023-03-21T07:33:46.281Z,62.89
2023-03-21T07:36:16.253Z,62.81
2023-03-21T07:38:45.982Z,62.64
2023-03-21T07:43:47.469Z,61.97
2023-03-21T07:46:15.737Z,61.83
2023-03-21T07:48:43.918Z,61.28
2023-03-21T07:51:12.052Z,61.03
2023-03-21T07:53:42.017Z,60.69
2023-03-21T07:56:10.266Z,60.17
2023-03-21T07:58:38.646Z,59.82
2023-03-21T08:01:06.954Z,59.36
2023-03-21T08:03:35.161Z,58.81
2023-03-21T08:06:03.795Z,58.16
2023-03-21T08:08:33.613Z,57.38
2023-03-21T08:11:01.845Z,57.41
2023-03-21T08:13:29.992Z,56.81
2023-03-21T08:15:58.092Z,56.56
2023-03-21T08:18:26.573Z,55.97
2023-03-21T08:20:56.895Z,55.53
2023-03-21T08:23:26.050Z,55.24
2023-03-21T08:25:55.878Z,55.08
2023-03-21T08:28:25.061Z,54.80
2023-03-21T08:30:53.660Z,54.80
2023-03-21T08:33:21.827Z,54.25
2023-03-21T08:35:50.329Z,54.16
2023-03-21T08:38:18.577Z,54.11
2023-03-21T08:40:46.763Z,53.81
2023-03-21T08:43:15.089Z,53.38
2023-03-21T08:45:43.672Z,53.28
2023-03-21T08:48:11.921Z,53.45
2023-03-21T08:50:40.531Z,53.65
2023-03-21T08:53:08.670Z,53.36
2023-03-21T08:55:37.996Z,53.33
2023-03-21T08:58:07.393Z,52.99
2023-03-21T09:00:35.611Z,52.84
2023-03-21T09:03:05.096Z,52.58
2023-03-21T09:05:33.707Z,52.21
2023-03-21T09:08:03.538Z,51.91
2023-03-21T09:10:32.267Z,52.01
2023-03-21T09:13:00.779Z,52.07
2023-03-21T09:15:29.898Z,52.12
2023-03-21T09:18:13.274Z,51.64
2023-03-21T09:20:46.767Z,51.30
2023-03-21T09:23:15.385Z,51.40
2023-03-21T09:25:46.133Z,51.42
2023-03-21T09:28:14.496Z,51.14
2023-03-21T09:30:42.699Z,51.17
2023-03-21T09:33:19.278Z,51.08
2023-03-21T09:35:48.653Z,50.87
2023-03-21T09:38:17.855Z,50.79
2023-03-21T09:41:23.844Z,51.11
2023-03-21T09:44:17.490Z,51.36
2023-03-21T09:47:21.682Z,51.64
2023-03-21T09:50:13.123Z,51.99
2023-03-21T09:53:19.136Z,52.10
2023-03-21T09:55:47.558Z,52.26
2023-03-21T09:58:40.499Z,52.43
2023-03-21T10:01:28.323Z,52.55
2023-03-21T10:04:01.033Z,52.88
2023-03-21T10:06:30.664Z,53.02
2023-03-21T10:09:08.584Z,53.02
2023-03-21T10:11:54.352Z,53.05
2023-03-21T10:15:05.434Z,52.94
2023-03-21T10:17:41.209Z,52.78
2023-03-21T10:20:16.335Z,52.67
2023-03-21T10:22:47.721Z,52.43
2023-03-21T10:25:22.040Z,52.45
2023-03-21T10:27:52.659Z,52.04
2023-03-21T10:30:47.752Z,52.14
2023-03-21T10:33:22.734Z,52.08
2023-03-21T10:35:58.996Z,52.05
2023-03-21T10:38:27.372Z,51.86
2023-03-21T10:40:56.111Z,51.94
2023-03-21T10:43:26.971Z,51.90
2023-03-21T10:45:56.607Z,51.65
2023-03-21T10:48:25.676Z,51.56
2023-03-21T10:50:56.264Z,51.40
2023-03-21T10:53:38.594Z,51.33
2023-03-21T10:56:12.209Z,51.29
2023-03-21T10:58:47.345Z,51.13
2023-03-21T11:01:31.704Z,50.88
2023-03-21T11:04:06.767Z,51.11
2023-03-21T11:06:40.273Z,51.09
2023-03-21T11:09:20.354Z,51.17
2023-03-21T11:12:02.210Z,51.13
2023-03-21T11:14:43.946Z,51.17
2023-03-21T11:17:18.180Z,51.15
2023-03-21T11:19:57.800Z,51.11
2023-03-21T11:22:39.131Z,51.26
2023-03-21T11:25:16.000Z,51.28
2023-03-21T11:27:51.062Z,51.09
2023-03-21T11:30:28.084Z,50.71
2023-03-21T11:32:58.992Z,50.55
2023-03-21T11:35:37.814Z,50.53
2023-03-21T11:38:26.011Z,50.23
2023-03-21T11:40:59.635Z,50.10
2023-03-21T11:43:31.829Z,50.02
2023-03-21T11:46:14.581Z,49.83
2023-03-21T11:48:45.376Z,49.70
2023-03-21T11:51:30.759Z,49.73
2023-03-21T11:54:25.325Z,49.44
2023-03-21T11:57:02.832Z,49.56
2023-03-21T12:00:18.216Z,49.39
2023-03-21T12:03:23.939Z,49.27
2023-03-21T12:06:03.323Z,48.95
2023-03-21T12:08:56.556Z,48.53
2023-03-21T12:11:52.475Z,48.43
2023-03-21T12:14:37.342Z,48.41
2023-03-21T12:17:27.102Z,48.13
2023-03-21T12:20:12.110Z,47.99
2023-03-21T12:23:18.967Z,48.10
2023-03-21T12:26:11.337Z,48.01
2023-03-21T12:29:04.203Z,48.06
2023-03-21T12:32:06.516Z,48.11
2023-03-21T12:35:36.705Z,47.98
2023-03-21T12:38:38.564Z,49.69
2023-03-21T12:41:33.787Z,53.25
2023-03-21T12:44:17.194Z,56.18
2023-03-21T12:47:03.516Z,60.09
2023-03-21T12:49:43.155Z,61.23
2023-03-21T12:52:16.884Z,60.63
2023-03-21T13:13:42.510Z,60.60
2023-03-21T13:16:42.653Z,59.69
2023-03-21T13:19:31.901Z,59.19
2023-03-21T13:22:18.770Z,59.49
2023-03-21T13:24:57.621Z,59.42
2023-03-21T13:27:32.255Z,59.98
2023-03-21T13:30:21.755Z,60.55
2023-03-21T13:32:52.070Z,61.02
2023-03-21T13:35:45.414Z,61.51
2023-03-21T13:38:22.684Z,60.73
2023-03-21T13:41:07.810Z,61.14
2023-03-21T13:43:53.061Z,61.01
2023-03-21T13:46:27.325Z,60.81
2023-03-21T13:49:07.953Z,60.75
2023-03-21T13:51:46.734Z,60.43
2023-03-21T13:54:14.829Z,60.59
2023-03-21T13:56:48.935Z,60.26
2023-03-21T13:59:37.621Z,59.68
2023-03-21T14:02:11.963Z,59.13
2023-03-21T14:05:00.177Z,59.35
2023-03-21T14:07:42.688Z,58.96
2023-03-21T14:10:52.503Z,58.91
2023-03-21T14:13:24.893Z,59.09
2023-03-21T14:16:08.542Z,59.64
2023-03-21T14:18:55.209Z,59.72
2023-03-21T14:21:29.668Z,60.05
2023-03-21T14:24:12.999Z,60.16
2023-03-21T14:26:43.970Z,60.31
2023-03-21T14:29:36.260Z,60.13
2023-03-21T14:32:06.054Z,60.22
2023-03-21T14:34:36.087Z,60.30
2023-03-21T14:37:07.972Z,60.38
2023-03-21T14:39:36.226Z,60.33
2023-03-21T14:42:15.101Z,60.04
2023-03-21T14:44:56.904Z,59.94
2023-03-21T14:47:31.411Z,59.54
2023-03-21T14:50:01.264Z,59.50
2023-03-21T14:52:34.722Z,59.64
2023-03-21T14:55:15.017Z,59.56
2023-03-21T14:57:43.256Z,59.55
2023-03-21T15:00:23.109Z,59.69
2023-03-21T15:02:52.495Z,59.48
2023-03-21T15:05:32.818Z,59.40
2023-03-21T15:08:09.336Z,59.43
2023-03-21T15:10:38.690Z,59.53
2023-03-21T15:13:22.477Z,59.46
2023-03-21T15:15:50.842Z,59.50
2023-03-21T15:18:32.233Z,59.65
2023-03-21T15:21:10.834Z,59.74
2023-03-21T15:23:43.225Z,59.58
2023-03-21T15:26:24.616Z,59.80
2023-03-21T15:28:58.661Z,59.68
2023-03-21T15:31:39.442Z,59.98
2023-03-21T15:34:17.366Z,60.36
2023-03-21T15:36:48.843Z,60.59
2023-03-21T15:39:21.700Z,60.62
2023-03-21T15:42:27.577Z,61.19
2023-03-21T15:45:01.529Z,61.18
2023-03-21T15:47:53.224Z,61.33
2023-03-21T15:50:26.887Z,61.46
2023-03-21T15:52:56.694Z,61.85
2023-03-21T15:55:53.233Z,61.92
2023-03-21T15:58:34.669Z,61.91
2023-03-21T16:01:13.390Z,61.88
2023-03-21T16:04:13.620Z,61.67
2023-03-21T16:07:16.189Z,61.49
2023-03-21T16:09:47.021Z,61.48
2023-03-21T16:12:17.546Z,61.34
2023-03-21T16:14:48.805Z,61.19
2023-03-21T16:17:33.154Z,61.19
2023-03-21T16:20:01.289Z,61.19
2023-03-21T16:22:34.836Z,61.14
2023-03-21T16:25:03.096Z,61.25
2023-03-21T16:27:31.208Z,61.33
2023-03-21T16:29:59.350Z,61.43
2023-03-21T16:32:28.854Z,61.51
2023-03-21T16:34:56.949Z,61.66
2023-03-21T16:37:25.304Z,61.82
2023-03-21T16:39:53.545Z,62.00
2023-03-21T16:42:21.735Z,62.36
2023-03-21T16:44:49.853Z,62.62
2023-03-21T16:47:23.826Z,62.61
2023-03-21T16:49:51.974Z,62.71
2023-03-21T16:52:20.834Z,62.88
2023-03-21T16:54:48.929Z,62.87
2023-03-21T16:57:28.733Z,62.93
2023-03-21T16:59:57.542Z,63.13
2023-03-21T17:02:26.369Z,63.24
2023-03-21T17:04:54.717Z,63.34
2023-03-21T17:07:22.853Z,63.46
2023-03-21T17:09:51.290Z,63.50
2023-03-21T17:12:19.553Z,63.51
2023-03-21T17:14:47.688Z,63.79
2023-03-21T17:17:17.282Z,63.71
2023-03-21T17:19:46.588Z,63.82
2023-03-21T17:22:14.787Z,64.11
2023-03-21T17:24:42.936Z,64.46
2023-03-21T17:27:15.524Z,64.46
2023-03-21T17:29:44.431Z,64.48
2023-03-21T17:32:12.701Z,64.69
2023-03-21T17:34:42.167Z,64.83
2023-03-21T17:37:11.430Z,64.90
2023-03-21T17:39:39.921Z,64.87
2023-03-21T17:42:15.959Z,64.91
2023-03-21T17:44:44.340Z,65.14
2023-03-21T17:47:12.648Z,65.08
2023-03-21T17:49:41.237Z,65.23
2023-03-21T17:52:09.317Z,65.21
2023-03-21T17:54:37.455Z,65.33
2023-03-21T17:57:05.576Z,65.28
2023-03-21T17:59:33.694Z,65.31
2023-03-21T18:02:01.881Z,65.18
2023-03-21T18:04:30.118Z,65.31
2023-03-21T18:07:01.083Z,65.08
2023-03-21T18:09:29.547Z,65.29
2023-03-21T18:11:57.680Z,65.17
2023-03-21T18:14:28.881Z,65.13
2023-03-21T18:16:58.526Z,65.09
2023-03-21T18:19:27.387Z,65.28
2023-03-21T18:21:56.218Z,65.46
2023-03-21T18:24:24.620Z,65.63
2023-03-21T18:26:52.810Z,65.57
2023-03-21T18:32:09.423Z,65.26
2023-03-21T18:34:39.627Z,65.46
2023-03-21T18:37:10.018Z,65.60
2023-03-21T18:39:39.649Z,65.62
2023-03-21T18:42:14.784Z,65.53
2023-03-21T18:44:47.611Z,65.66
2023-03-21T18:47:16.738Z,65.61
2023-03-21T18:52:33.303Z,65.60
2023-03-21T18:55:02.742Z,65.61
2023-03-21T18:57:37.852Z,65.57
2023-03-21T19:00:18.670Z,65.51
2023-03-21T19:02:50.823Z,65.69
2023-03-21T19:05:23.388Z,65.63
2023-03-21T19:07:53.028Z,65.64
2023-03-21T19:10:24.014Z,65.73
2023-03-21T19:12:54.912Z,65.79
2023-03-21T19:15:24.472Z,65.73
2023-03-21T19:20:46.953Z,65.79
2023-03-21T19:23:16.978Z,65.91
2023-03-21T19:25:45.450Z,65.98
2023-03-21T19:28:13.594Z,66.19
2023-03-21T19:30:49.853Z,66.27
2023-03-21T19:33:20.136Z,66.21
2023-03-21T19:36:07.646Z,66.03
2023-03-21T19:38:39.156Z,66.06
2023-03-21T19:41:07.415Z,66.27
2023-03-21T19:43:36.700Z,66.27
2023-03-21T19:46:05.204Z,66.28
2023-03-21T19:48:33.458Z,66.53
2023-03-21T19:53:51.235Z,66.73
2023-03-21T19:56:23.175Z,66.81
2023-03-21T19:58:55.723Z,66.75
2023-03-21T20:01:24.927Z,66.61
2023-03-21T20:03:53.856Z,66.32
2023-03-21T20:06:23.786Z,66.30
2023-03-21T20:11:41.974Z,66.20
2023-03-21T20:14:10.609Z,66.17
2023-03-21T20:16:38.769Z,66.21
2023-03-21T20:19:10.200Z,66.21
2023-03-21T20:21:49.060Z,66.34
2023-03-21T20:24:20.326Z,66.68
2023-03-21T20:26:52.285Z,66.73
2023-03-21T20:32:09.524Z,66.96
2023-03-21T20:34:38.313Z,67.00
2023-03-21T20:37:07.284Z,66.67
2023-03-21T20:39:36.038Z,66.73
2023-03-21T20:42:05.390Z,66.79
2023-03-21T20:44:55.943Z,66.74
2023-03-21T20:47:22.622Z,66.58
2023-03-21T20:49:50.875Z,66.72
2023-03-21T20:55:09.148Z,66.70
2023-03-21T20:57:39.073Z,66.80
2023-03-21T21:00:14.009Z,66.71
2023-03-21T21:02:45.908Z,66.75
2023-03-21T21:05:34.477Z,66.84
2023-03-21T21:08:03.799Z,66.97
2023-03-21T21:10:33.550Z,67.21
2023-03-21T21:13:02.456Z,67.43
2023-03-21T21:15:30.694Z,67.40
2023-03-21T21:18:08.085Z,67.77
2023-03-21T21:20:38.041Z,67.99
2023-03-21T21:23:06.585Z,68.22
2023-03-21T21:25:35.539Z,68.32
2023-03-21T21:28:03.994Z,68.54
2023-03-21T21:30:33.594Z,68.81
2023-03-21T21:33:01.796Z,68.82
2023-03-21T21:35:30.282Z,69.11
2023-03-21T21:37:58.519Z,69.29
2023-03-21T21:40:26.773Z,69.25
2023-03-21T21:42:55.144Z,69.54
2023-03-21T21:45:23.412Z,69.54
2023-03-21T21:47:51.665Z,69.86
2023-03-21T21:50:22.090Z,69.99
2023-03-21T21:52:52.849Z,69.59
2023-03-21T21:55:21.728Z,69.63
2023-03-21T21:57:53.159Z,70.00
2023-03-21T22:00:21.511Z,70.15
2023-03-21T22:02:49.684Z,70.01
2023-03-21T22:05:19.042Z,70.45
2023-03-21T22:07:49.182Z,70.44
2023-03-21T22:10:19.327Z,70.60
2023-03-21T22:12:47.696Z,70.84
2023-03-21T22:15:18.222Z,70.96
2023-03-21T22:17:46.496Z,71.08
2023-03-21T22:20:18.236Z,71.16
2023-03-21T22:22:47.455Z,71.35
2023-03-21T22:25:17.171Z,71.38
2023-03-21T22:27:45.733Z,71.47
2023-03-21T22:30:17.316Z,71.70
2023-03-21T22:33:02.580Z,71.56
2023-03-21T22:35:36.795Z,71.84
2023-03-21T22:38:05.169Z,72.19
2023-03-21T22:40:33.296Z,72.20
2023-03-21T22:43:01.570Z,72.23
2023-03-21T22:45:29.788Z,72.35
2023-03-21T22:47:59.872Z,72.31
2023-03-21T22:50:28.884Z,72.38
2023-03-21T22:52:57.021Z,72.37
2023-03-21T22:55:25.202Z,72.50
2023-03-21T22:57:53.324Z,72.56
2023-03-21T23:00:21.482Z,72.53
2023-03-21T23:02:49.676Z,72.56
2023-03-21T23:05:18.874Z,72.58
2023-03-21T23:07:46.984Z,72.60
2023-03-21T23:10:15.520Z,72.39
2023-03-21T23:12:43.674Z,72.46
2023-03-21T23:15:11.882Z,73.04
2023-03-21T23:17:40.115Z,72.74
2023-03-21T23:20:08.709Z,72.86
2023-03-21T23:22:37.006Z,73.05
2023-03-21T23:25:06.756Z,73.07
2023-03-21T23:27:37.792Z,73.02
2023-03-21T23:30:07.887Z,73.30
2023-03-21T23:32:36.289Z,73.01
2023-03-21T23:35:05.011Z,73.20
2023-03-21T23:37:33.175Z,73.68
2023-03-21T23:40:01.485Z,73.69
2023-03-21T23:42:30.520Z,73.69
2023-03-21T23:44:58.777Z,73.95
2023-03-21T23:47:27.052Z,73.79
2023-03-21T23:49:55.192Z,74.03
2023-03-21T23:52:23.400Z,73.96
2023-03-21T23:54:51.950Z,73.95
2023-03-21T23:57:20.272Z,73.94
2023-03-21T23:59:48.425Z,74.11
